createdAt,value
2022-11-02T00:00:31.034Z,94.14
2022-11-02T00:02:58.293Z,93.96
2022-11-02T00:05:25.481Z,93.96
2022-11-02T00:07:54.037Z,94.46
2022-11-02T00:10:23.136Z,94.58
2022-11-02T00:12:50.826Z,94.75
2022-11-02T00:15:18.383Z,94.76
2022-11-02T00:17:49.660Z,94.83
2022-11-02T00:20:19.361Z,94.49
2022-11-02T00:22:48.649Z,94.52
2022-11-02T00:25:18.973Z,94.51
2022-11-02T00:27:48.700Z,94.63
2022-11-02T00:30:16.290Z,94.51
2022-11-02T00:32:43.083Z,94.08
2022-11-02T00:35:10.608Z,94.29
2022-11-02T00:37:37.916Z,94.06
2022-11-02T00:40:05.929Z,94.05
2022-11-02T00:42:32.783Z,93.57
2022-11-02T00:44:59.560Z,93.66
2022-11-02T00:47:26.335Z,93.59
2022-11-02T00:49:53.061Z,93.61
2022-11-02T00:52:19.800Z,93.62
2022-11-02T00:54:47.014Z,93.21
2022-11-02T00:57:14.128Z,92.96
2022-11-02T00:59:40.879Z,92.81
2022-11-02T01:02:08.539Z,92.95
2022-11-02T01:04:35.638Z,93.07
2022-11-02T01:07:03.923Z,92.32
2022-11-02T01:09:30.869Z,92.28
2022-11-02T01:11:57.854Z,92.47
2022-11-02T01:14:24.865Z,92.48
2022-11-02T01:16:51.683Z,92.36
2022-11-02T01:19:18.529Z,92.49
2022-11-02T01:21:45.327Z,92.26
2022-11-02T01:24:12.412Z,91.96
2022-11-02T01:26:39.254Z,92.34
2022-11-02T01:29:06.396Z,92.15
2022-11-02T01:31:33.169Z,92.53
2022-11-02T01:34:00.517Z,92.83
2022-11-02T01:36:27.427Z,92.42
2022-11-02T01:38:55.023Z,92.35
2022-11-02T01:41:22.446Z,92.12
2022-11-02T01:43:54.296Z,92.07
2022-11-02T01:46:27.175Z,92.06
2022-11-02T01:49:07.126Z,92.00
2022-11-02T01:51:42.758Z,91.94
2022-11-02T01:54:16.989Z,91.74
2022-11-02T01:56:49.894Z,91.63
2022-11-02T01:59:22.713Z,91.78
2022-11-02T02:01:49.922Z,91.46
2022-11-02T02:04:17.638Z,91.87
2022-11-02T02:06:44.597Z,91.53
2022-11-02T02:09:14.749Z,91.81
2022-11-02T02:11:42.021Z,91.72
2022-11-02T02:14:14.769Z,91.73
2022-11-02T02:17:03.030Z,92.10
2022-11-02T02:19:47.933Z,91.73
2022-11-02T02:22:41.063Z,91.96
2022-11-02T02:25:23.088Z,91.64
2022-11-02T02:27:55.734Z,92.10
2022-11-02T02:30:23.280Z,92.22
2022-11-02T02:33:11.090Z,92.03
2022-11-02T02:35:57.742Z,91.92
2022-11-02T02:39:04.309Z,91.76
2022-11-02T02:41:41.956Z,91.85
2022-11-02T02:44:22.009Z,91.93
2022-11-02T02:47:05.336Z,92.06
2022-11-02T02:49:49.353Z,92.11
2022-11-02T02:52:20.193Z,92.71
2022-11-02T02:54:48.059Z,92.78
2022-11-02T02:57:20.434Z,92.96
2022-11-02T02:59:49.228Z,93.00
2022-11-02T03:02:25.498Z,93.10
2022-11-02T03:04:52.634Z,93.02
2022-11-02T03:07:34.556Z,92.98
2022-11-02T03:10:45.060Z,92.82
2022-11-02T03:13:47.929Z,92.67
2022-11-02T03:17:05.076Z,92.48
2022-11-02T03:19:46.971Z,92.16
2022-11-02T03:22:22.930Z,92.19
2022-11-02T03:25:00.870Z,92.18
2022-11-02T03:27:55.693Z,92.31
2022-11-02T03:30:25.098Z,92.49
2022-11-02T03:33:17.850Z,92.53
2022-11-02T03:36:04.626Z,92.65
2022-11-02T03:39:19.190Z,92.60
2022-11-02T03:41:48.876Z,92.41
2022-11-02T03:44:23.910Z,92.39
2022-11-02T03:46:59.783Z,92.80
2022-11-02T03:49:28.662Z,92.93
2022-11-02T03:52:00.282Z,92.95
2022-11-02T03:55:08.993Z,93.02
2022-11-02T03:57:47.990Z,93.18
2022-11-02T04:00:22.082Z,93.21
2022-11-02T04:02:54.910Z,93.24
2022-11-02T04:05:29.996Z,93.14
2022-11-02T04:08:15.974Z,93.41
2022-11-02T04:11:02.716Z,93.43
2022-11-02T04:13:48.485Z,93.24
2022-11-02T04:16:16.074Z,93.78
2022-11-02T04:19:02.243Z,93.84
2022-11-02T04:21:29.930Z,94.21
2022-11-02T04:24:16.201Z,94.69
2022-11-02T04:26:43.193Z,94.66
2022-11-02T04:29:11.111Z,94.66
2022-11-02T04:31:38.050Z,94.89
2022-11-02T04:34:05.155Z,95.03
2022-11-02T04:36:32.694Z,94.96
2022-11-02T04:38:59.914Z,94.87
2022-11-02T04:41:41.751Z,95.03
2022-11-02T04:44:10.838Z,94.99
2022-11-02T04:46:39.318Z,94.99
2022-11-02T04:49:07.025Z,95.28
2022-11-02T04:51:34.823Z,94.96
2022-11-02T04:54:02.164Z,95.02
2022-11-02T04:56:30.560Z,95.04
2022-11-02T04:58:59.909Z,94.80
2022-11-02T05:01:29.765Z,94.90
2022-11-02T05:03:57.384Z,94.63
2022-11-02T05:06:25.136Z,94.75
2022-11-02T05:08:52.082Z,94.88
2022-11-02T05:11:19.498Z,94.71
2022-11-02T05:13:46.431Z,94.60
2022-11-02T05:16:16.677Z,94.69
2022-11-02T05:18:44.266Z,94.55
2022-11-02T05:21:12.853Z,94.66
2022-11-02T05:23:40.225Z,94.61
2022-11-02T05:26:11.958Z,94.35
2022-11-02T05:28:39.419Z,94.11
2022-11-02T05:31:06.621Z,94.11
2022-11-02T05:33:35.493Z,94.33
2022-11-02T05:36:02.400Z,93.93
2022-11-02T05:38:30.071Z,94.47
2022-11-02T05:41:00.591Z,94.41
2022-11-02T05:43:27.916Z,94.42
2022-11-02T05:45:58.535Z,94.32
2022-11-02T05:48:27.959Z,94.40
2022-11-02T05:51:00.791Z,94.33
2022-11-02T05:53:32.054Z,94.45
2022-11-02T05:56:04.271Z,94.60
2022-11-02T05:58:31.584Z,94.99
2022-11-02T06:01:04.145Z,94.96
2022-11-02T06:03:32.401Z,95.27
2022-11-02T06:06:02.335Z,95.29
2022-11-02T06:08:33.677Z,95.58
2022-11-02T06:11:12.038Z,95.66
2022-11-02T06:13:40.519Z,95.69
2022-11-02T06:16:09.931Z,95.46
2022-11-02T06:18:40.301Z,95.61
2022-11-02T06:21:07.515Z,95.84
2022-11-02T06:23:35.504Z,95.75
2022-11-02T06:26:03.660Z,95.57
2022-11-02T06:28:31.147Z,95.53
2022-11-02T06:30:58.414Z,95.54
2022-11-02T06:33:25.194Z,95.15
2022-11-02T06:35:54.418Z,95.19
2022-11-02T06:38:22.008Z,95.21
2022-11-02T06:41:00.834Z,95.04
2022-11-02T06:43:27.665Z,95.30
2022-11-02T06:45:56.829Z,95.50
2022-11-02T06:48:26.630Z,95.55
2022-11-02T06:50:58.248Z,95.56
2022-11-02T06:53:25.132Z,95.48
2022-11-02T06:56:01.277Z,95.34
2022-11-02T06:58:28.839Z,95.45
2022-11-02T07:01:04.505Z,95.37
2022-11-02T07:03:31.757Z,95.58
2022-11-02T07:05:58.537Z,95.59
2022-11-02T07:08:26.378Z,95.54
2022-11-02T07:10:53.629Z,95.73
2022-11-02T07:13:21.285Z,95.92
2022-11-02T07:15:51.880Z,95.70
2022-11-02T07:18:18.829Z,95.72
2022-11-02T07:20:45.632Z,95.93
2022-11-02T07:23:12.489Z,95.99
2022-11-02T07:25:39.418Z,96.07
2022-11-02T07:28:06.208Z,96.05
2022-11-02T07:30:34.694Z,96.13
2022-11-02T07:33:02.231Z,96.25
2022-11-02T07:35:29.467Z,96.21
2022-11-02T07:38:02.309Z,96.15
2022-11-02T07:40:31.293Z,96.05
2022-11-02T07:42:59.274Z,96.19
2022-11-02T07:45:27.125Z,96.00
2022-11-02T07:47:54.709Z,96.45
2022-11-02T07:50:24.115Z,96.61
2022-11-02T07:52:57.042Z,96.50
2022-11-02T07:55:27.930Z,96.62
2022-11-02T07:57:57.769Z,96.95
2022-11-02T08:00:31.822Z,97.26
2022-11-02T08:03:01.154Z,97.35
2022-11-02T08:05:30.526Z,97.21
2022-11-02T08:08:01.767Z,97.45
2022-11-02T08:10:35.372Z,97.23
2022-11-02T08:13:06.843Z,97.41
2022-11-02T08:15:33.609Z,97.11
2022-11-02T08:18:09.928Z,97.19
2022-11-02T08:20:36.922Z,97.10
2022-11-02T08:23:04.485Z,96.98
2022-11-02T08:25:32.214Z,96.86
2022-11-02T08:28:00.214Z,97.11
2022-11-02T08:30:29.326Z,97.23
2022-11-02T08:32:57.269Z,97.07
2022-11-02T08:35:24.401Z,97.16
2022-11-02T08:37:57.980Z,97.00
2022-11-02T08:40:24.915Z,97.19
2022-11-02T08:43:04.616Z,96.95
2022-11-02T08:46:08.486Z,96.79
2022-11-02T08:48:20.806Z,96.76
2022-11-02T08:50:49.002Z,96.57
2022-11-02T08:53:15.929Z,96.42
2022-11-02T08:55:42.757Z,96.07
2022-11-02T08:58:11.238Z,95.73
2022-11-02T09:00:38.012Z,95.59
2022-11-02T09:03:10.902Z,95.32
2022-11-02T09:05:46.472Z,95.54
2022-11-02T09:08:21.111Z,95.16
2022-11-02T09:10:51.791Z,94.48
2022-11-02T09:13:25.469Z,94.40
2022-11-02T09:15:55.750Z,94.15
2022-11-02T09:18:23.720Z,94.11
2022-11-02T09:20:51.637Z,93.80
2022-11-02T09:23:20.735Z,93.67
2022-11-02T09:25:48.901Z,93.59
2022-11-02T09:28:16.150Z,93.37
2022-11-02T09:30:43.547Z,93.28
2022-11-02T09:33:11.292Z,92.82
2022-11-02T09:35:44.315Z,92.13
2022-11-02T09:38:12.305Z,91.82
2022-11-02T09:40:41.966Z,91.43
2022-11-02T09:43:08.957Z,91.16
2022-11-02T09:46:08.486Z,91.52
2022-11-02T09:48:45.661Z,90.98
2022-11-02T09:51:16.730Z,90.54
2022-11-02T09:54:17.366Z,90.16
2022-11-02T09:56:46.088Z,89.76
2022-11-02T09:59:20.705Z,89.49
2022-11-02T10:02:18.349Z,89.53
2022-11-02T10:05:14.095Z,89.17
2022-11-02T10:07:59.051Z,88.89
2022-11-02T10:10:40.654Z,88.46
2022-11-02T10:13:44.269Z,88.17
2022-11-02T10:16:19.409Z,88.12
2022-11-02T10:18:50.192Z,87.76
2022-11-02T10:21:31.921Z,87.92
2022-11-02T10:24:30.405Z,87.29
2022-11-02T10:27:01.365Z,87.14
2022-11-02T10:29:42.711Z,87.22
2022-11-02T10:32:12.132Z,87.25
2022-11-02T10:34:40.321Z,87.06
2022-11-02T10:38:04.426Z,87.44
2022-11-02T10:41:33.418Z,87.01
2022-11-02T10:44:06.261Z,86.46
2022-11-02T10:46:56.302Z,86.48
2022-11-02T10:50:12.013Z,86.83
2022-11-02T10:52:44.052Z,86.71
2022-11-02T10:55:34.676Z,86.34
2022-11-02T10:58:05.392Z,86.25
2022-11-02T11:00:36.346Z,86.25
2022-11-02T11:03:16.357Z,86.28
2022-11-02T11:05:52.922Z,85.74
2022-11-02T11:08:29.656Z,85.49
2022-11-02T11:11:23.171Z,85.60
2022-11-02T11:16:56.475Z,85.16
2022-11-02T11:22:36.569Z,84.33
2022-11-02T11:25:12.364Z,84.08
2022-11-02T11:27:57.123Z,83.74
2022-11-02T11:30:54.240Z,83.73
2022-11-02T11:33:20.012Z,84.14
2022-11-02T11:35:51.441Z,84.21
2022-11-02T11:38:26.227Z,84.01
2022-11-02T11:40:57.959Z,83.53
2022-11-02T11:43:35.064Z,84.01
2022-11-02T11:46:07.081Z,83.65
2022-11-02T11:48:53.400Z,83.51
2022-11-02T11:51:36.949Z,83.27
2022-11-02T11:54:27.064Z,83.38
2022-11-02T11:57:21.864Z,82.75
2022-11-02T11:59:53.034Z,82.45
2022-11-02T12:02:40.995Z,82.47
2022-11-02T12:05:18.299Z,81.99
2022-11-02T12:08:11.376Z,81.70
2022-11-02T12:10:56.602Z,81.09
2022-11-02T12:13:51.091Z,81.29
2022-11-02T12:16:55.492Z,79.99
2022-11-02T12:19:52.758Z,79.92
2022-11-02T12:22:42.356Z,78.89
2022-11-02T12:25:26.105Z,77.26
2022-11-02T12:28:13.509Z,76.67
2022-11-02T12:31:00.359Z,76.66
2022-11-02T12:33:39.037Z,75.68
2022-11-02T12:36:30.451Z,76.01
2022-11-02T12:39:26.925Z,75.41
2022-11-02T12:42:05.766Z,75.10
2022-11-02T12:44:37.890Z,75.21
2022-11-02T12:47:45.339Z,74.90
2022-11-02T12:50:21.677Z,74.18
2022-11-02T12:53:16.585Z,74.80
2022-11-02T12:55:51.154Z,74.71
2022-11-02T12:58:25.743Z,74.11
2022-11-02T13:01:19.420Z,74.66
2022-11-02T13:03:50.853Z,74.39
2022-11-02T13:06:23.567Z,74.68
2022-11-02T13:09:30.909Z,74.39
2022-11-02T13:12:03.581Z,74.37
2022-11-02T13:14:41.528Z,73.91
2022-11-02T13:17:26.282Z,73.94
2022-11-02T13:20:26.362Z,74.23
2022-11-02T13:23:52.498Z,73.96
2022-11-02T13:26:39.587Z,74.34
2022-11-02T13:29:33.268Z,73.90
2022-11-02T13:32:11.323Z,73.82
2022-11-02T13:34:44.017Z,73.80
2022-11-02T13:37:30.787Z,73.77
2022-11-02T13:40:05.495Z,74.22
2022-11-02T13:43:08.980Z,73.62
2022-11-02T13:46:08.299Z,73.75
2022-11-02T13:49:03.495Z,73.56
2022-11-02T13:51:45.501Z,73.62
2022-11-02T13:54:25.648Z,73.59
2022-11-02T13:56:57.648Z,73.85
2022-11-02T13:59:30.702Z,73.93
2022-11-02T14:02:02.868Z,73.94
2022-11-02T14:04:39.098Z,74.00
2022-11-02T14:07:19.969Z,74.41
2022-11-02T14:09:47.585Z,74.41
2022-11-02T14:12:23.860Z,74.46
2022-11-02T14:15:12.290Z,74.50
2022-11-02T14:17:54.385Z,74.51
2022-11-02T14:20:35.913Z,75.40
2022-11-02T14:23:12.116Z,76.11
2022-11-02T14:25:56.932Z,76.91
2022-11-02T14:28:25.809Z,77.35
2022-11-02T14:31:04.688Z,77.43
2022-11-02T14:34:06.583Z,78.16
2022-11-02T14:37:01.704Z,77.71
2022-11-02T14:40:01.215Z,77.81
2022-11-02T14:42:48.657Z,77.73
2022-11-02T14:45:46.153Z,78.19
2022-11-02T14:48:17.025Z,78.18
2022-11-02T14:51:14.925Z,78.18
2022-11-02T14:53:42.679Z,78.08
2022-11-02T14:56:09.713Z,78.12
2022-11-02T14:58:41.939Z,78.09
2022-11-02T15:01:15.242Z,78.16
2022-11-02T15:03:44.039Z,78.05
2022-11-02T15:06:27.889Z,78.52
2022-11-02T15:08:59.134Z,78.29
2022-11-02T15:11:51.358Z,78.80
2022-11-02T15:14:55.401Z,78.61
2022-11-02T15:17:25.135Z,78.85
2022-11-02T15:19:54.088Z,78.90
2022-11-02T15:22:31.617Z,79.37
2022-11-02T15:25:05.736Z,79.36
2022-11-02T15:27:40.658Z,78.93
2022-11-02T15:30:14.100Z,78.83
2022-11-02T15:32:49.099Z,78.80
2022-11-02T15:35:19.965Z,78.96
2022-11-02T15:38:11.268Z,78.97
2022-11-02T15:40:47.646Z,79.21
2022-11-02T15:43:48.284Z,79.67
2022-11-02T15:46:43.323Z,80.69
2022-11-02T15:49:32.053Z,82.42
2022-11-02T15:52:08.599Z,83.79
2022-11-02T15:55:05.774Z,85.14
2022-11-02T15:57:47.938Z,86.01
2022-11-02T16:00:30.247Z,86.62
2022-11-02T16:03:18.095Z,88.43
2022-11-02T16:05:47.934Z,88.33
2022-11-02T16:08:34.275Z,88.77
2022-11-02T16:11:19.442Z,90.07
2022-11-02T16:14:07.599Z,91.11
2022-11-02T16:16:50.241Z,92.56
2022-11-02T16:19:21.748Z,92.16
2022-11-02T16:21:49.905Z,93.07
2022-11-02T16:24:17.468Z,92.71
2022-11-02T16:26:46.669Z,93.03
2022-11-02T16:29:29.335Z,93.45
2022-11-02T16:31:56.707Z,93.84
2022-11-02T16:34:30.139Z,94.49
2022-11-02T16:36:58.155Z,95.13
2022-11-02T16:39:34.683Z,95.06
2022-11-02T16:42:03.069Z,95.18
2022-11-02T16:44:32.846Z,95.49
2022-11-02T16:47:11.807Z,96.13
2022-11-02T16:49:53.533Z,97.06
2022-11-02T16:52:24.009Z,97.10
2022-11-02T16:54:50.775Z,96.77
2022-11-02T16:57:29.565Z,97.18
2022-11-02T17:00:11.518Z,98.15
2022-11-02T17:02:43.132Z,98.36
2022-11-02T17:05:26.002Z,98.44
2022-11-02T17:07:59.028Z,98.64
2022-11-02T17:10:28.925Z,99.00
2022-11-02T17:12:57.557Z,99.02
2022-11-02T17:15:29.991Z,99.26
2022-11-02T17:18:09.353Z,99.32
2022-11-02T17:20:40.816Z,98.92
2022-11-02T17:23:29.119Z,99.16
2022-11-02T17:26:30.670Z,99.20
2022-11-02T17:29:26.870Z,99.41
2022-11-02T17:32:01.176Z,99.37
2022-11-02T17:34:28.369Z,99.79
2022-11-02T17:36:55.892Z,99.39
2022-11-02T17:39:22.725Z,99.99
2022-11-02T17:42:19.347Z,100.00
2022-11-02T17:44:46.853Z,100.00
2022-11-02T17:47:17.879Z,100.00
2022-11-02T17:49:44.649Z,100.00
2022-11-02T17:52:14.950Z,100.00
2022-11-02T17:54:41.751Z,100.00
2022-11-02T17:57:14.097Z,100.00
2022-11-02T17:59:40.949Z,100.00
2022-11-02T18:02:16.020Z,100.00
2022-11-02T18:07:11.025Z,100.00
2022-11-02T18:09:37.765Z,100.00
2022-11-02T18:12:04.747Z,100.00
2022-11-02T18:14:31.705Z,100.00
2022-11-02T18:16:58.558Z,100.00
2022-11-02T18:19:25.328Z,100.00
2022-11-02T18:21:52.488Z,100.00
2022-11-02T18:24:19.214Z,100.00
2022-11-02T18:26:47.195Z,100.00
2022-11-02T18:29:14.043Z,100.00
2022-11-02T18:31:40.960Z,100.00
2022-11-02T18:34:08.067Z,100.00
2022-11-02T18:36:39.967Z,100.00
2022-11-02T18:39:06.934Z,100.00
2022-11-02T18:41:37.086Z,100.00
2022-11-02T18:44:13.542Z,100.00
2022-11-02T18:46:42.197Z,100.00
2022-11-02T18:49:09.070Z,100.00
2022-11-02T18:51:36.219Z,100.00
2022-11-02T18:54:06.213Z,100.00
2022-11-02T18:56:33.582Z,100.00
2022-11-02T18:59:00.366Z,100.00
2022-11-02T19:01:28.424Z,100.00
2022-11-02T19:03:58.358Z,100.00
2022-11-02T19:06:46.768Z,100.00
2022-11-02T19:09:18.467Z,100.00
2022-11-02T19:11:56.903Z,100.00
2022-11-02T19:14:24.492Z,99.29
2022-11-02T19:16:51.299Z,99.47
2022-11-02T19:19:18.141Z,99.34
2022-11-02T19:21:45.096Z,98.93
2022-11-02T19:24:12.330Z,98.50
2022-11-02T19:26:39.297Z,97.81
2022-11-02T19:29:06.917Z,97.84
2022-11-02T19:31:35.298Z,97.54
2022-11-02T19:34:03.182Z,96.95
2022-11-02T19:36:30.308Z,96.78
2022-11-02T19:38:58.455Z,96.64
2022-11-02T19:41:25.399Z,96.88
2022-11-02T19:43:53.289Z,97.00
2022-11-02T19:46:22.460Z,96.71
2022-11-02T19:48:50.585Z,96.58
2022-11-02T19:51:22.910Z,96.63
2022-11-02T19:53:54.611Z,96.56
2022-11-02T19:56:22.697Z,96.56
2022-11-02T19:58:52.146Z,96.60
2022-11-02T20:01:27.492Z,96.22
2022-11-02T20:03:56.053Z,96.49
2022-11-02T20:06:29.293Z,96.27
2022-11-02T20:08:58.610Z,96.12
2022-11-02T20:11:28.671Z,96.39
2022-11-02T20:14:01.790Z,96.45
2022-11-02T20:16:29.274Z,96.69
2022-11-02T20:18:57.080Z,96.96
2022-11-02T20:21:32.329Z,96.89
2022-11-02T20:24:01.326Z,96.97
2022-11-02T20:26:32.236Z,96.38
2022-11-02T20:29:04.536Z,96.52
2022-11-02T20:31:34.641Z,96.23
2022-11-02T20:34:02.874Z,96.01
2022-11-02T20:36:30.275Z,95.23
2022-11-02T20:38:57.331Z,94.81
2022-11-02T20:41:26.202Z,94.31
2022-11-02T20:43:55.806Z,93.85
2022-11-02T20:46:37.478Z,93.32
2022-11-02T20:49:21.537Z,93.21
2022-11-02T20:51:53.838Z,92.47
2022-11-02T20:54:24.162Z,91.79
2022-11-02T20:56:51.577Z,92.12
2022-11-02T20:59:18.383Z,91.90
2022-11-02T21:01:45.877Z,91.70
2022-11-02T21:04:19.706Z,91.36
2022-11-02T21:06:49.048Z,91.53
2022-11-02T21:09:15.893Z,91.69
2022-11-02T21:12:01.038Z,91.77
2022-11-02T21:14:27.772Z,91.62
2022-11-02T21:16:54.560Z,91.59
2022-11-02T21:19:21.707Z,91.72
2022-11-02T21:21:48.433Z,92.12
2022-11-02T21:24:15.198Z,92.27
2022-11-02T21:26:41.975Z,92.38
2022-11-02T21:29:09.716Z,92.70
2022-11-02T21:31:36.968Z,92.59
2022-11-02T21:34:03.978Z,92.90
2022-11-02T21:36:30.992Z,93.14
2022-11-02T21:38:59.156Z,93.13
2022-11-02T21:41:28.996Z,93.38
2022-11-02T21:43:56.308Z,93.22
2022-11-02T21:46:25.955Z,93.19
2022-11-02T21:48:53.076Z,92.70
2022-11-02T21:51:22.209Z,92.83
2022-11-02T21:53:50.684Z,92.73
2022-11-02T21:56:18.881Z,92.70
2022-11-02T21:58:46.747Z,92.72
2022-11-02T22:01:44.537Z,92.41
2022-11-02T22:04:14.911Z,92.48
2022-11-02T22:06:42.760Z,92.51
2022-11-02T22:09:12.778Z,92.30
2022-11-02T22:11:40.273Z,92.27
2022-11-02T22:14:07.205Z,92.10
2022-11-02T22:16:40.782Z,91.93
2022-11-02T22:19:10.962Z,92.02
2022-11-02T22:21:43.597Z,91.32
2022-11-02T22:24:11.731Z,91.20
2022-11-02T22:26:40.028Z,91.42
2022-11-02T22:29:07.708Z,91.21
2022-11-02T22:31:40.087Z,91.39
2022-11-02T22:34:10.555Z,91.75
2022-11-02T22:36:39.585Z,91.93
2022-11-02T22:39:09.352Z,91.88
2022-11-02T22:41:40.508Z,91.89
2022-11-02T22:44:14.811Z,92.09
2022-11-02T22:46:47.799Z,91.97
2022-11-02T22:49:19.688Z,91.94
2022-11-02T22:51:49.635Z,91.74
2022-11-02T22:54:19.757Z,91.59
2022-11-02T22:56:48.629Z,91.58
2022-11-02T22:59:16.077Z,90.77
2022-11-02T23:01:43.110Z,89.92
2022-11-02T23:04:11.425Z,89.71
2022-11-02T23:06:38.886Z,88.63
2022-11-02T23:09:06.096Z,88.87
2022-11-02T23:11:36.750Z,88.27
2022-11-02T23:14:06.630Z,87.52
2022-11-02T23:16:47.200Z,86.37
2022-11-02T23:19:28.285Z,85.73
2022-11-02T23:22:29.039Z,85.04
2022-11-02T23:25:20.152Z,84.91
2022-11-02T23:28:14.204Z,83.94
2022-11-02T23:31:01.020Z,82.46
2022-11-02T23:33:36.401Z,82.21
2022-11-02T23:36:11.251Z,81.33
2022-11-02T23:39:05.712Z,80.76
2022-11-02T23:41:35.239Z,81.05
2022-11-02T23:44:19.093Z,81.38
2022-11-02T23:46:51.212Z,81.49
2022-11-02T23:49:18.727Z,81.72
2022-11-02T23:52:04.113Z,80.85
2022-11-02T23:54:49.282Z,81.43
2022-11-02T23:57:16.270Z,81.09
2022-11-02T23:59:43.046Z,81.63
